Time;durP1;ratioP1;P1;durP2;ratioP2;P2;SDS_P1;SDS_P2;PMS_P1;PMS_P2;Temp;Humidity;BMP_temperature;BMP_pressure;BME280_temperature;BME280_humidity;BME280_pressure;Samples;Min_cycle;Max_cycle;Signal;HPM_P1;HPM_P2
2021/09/14 00:00:56;;;;;;;;;9.00;8.00;;;;;;;;4991231;28;45376;-73
2021/09/14 00:03:22;;;;;;;;;8.25;7.00;;;;;;;;4992518;28;45438;-73
2021/09/14 00:05:47;;;;;;;;;9.00;7.50;;;;;;;;4991789;28;45457;-73
2021/09/14 00:08:12;;;;;;;;;6.75;6.25;;;;;;;;4991152;28;45580;-73
2021/09/14 00:10:37;;;;;;;;;7.50;6.00;;;;;;;;4990649;28;46117;-73
2021/09/14 00:13:02;;;;;;;;;7.25;7.00;;;;;;;;4991048;28;45425;-73
2021/09/14 00:15:28;;;;;;;;;8.50;6.50;;;;;;;;4991241;28;45377;-73
2021/09/14 00:17:53;;;;;;;;;7.75;7.75;;;;;;;;4992432;28;45456;-73
2021/09/14 00:20:18;;;;;;;;;8.00;8.00;;;;;;;;4973149;28;46296;-73
2021/09/14 00:22:43;;;;;;;;;7.75;7.75;;;;;;;;4989510;28;45477;-72
2021/09/14 00:25:09;;;;;;;;;12.00;8.50;;;;;;;;4971501;28;45442;-71
2021/09/14 00:27:34;;;;;;;;;7.25;5.50;;;;;;;;4990999;28;45328;-73
2021/09/14 00:29:59;;;;;;;;;6.00;6.00;;;;;;;;4992900;28;46159;-72
2021/09/14 00:32:25;;;;;;;;;9.50;7.00;;;;;;;;4990752;28;45501;-73
2021/09/14 00:34:50;;;;;;;;;8.00;6.75;;;;;;;;4990959;28;45512;-73
2021/09/14 00:37:15;;;;;;;;;8.00;8.00;;;;;;;;4991005;28;45407;-73
2021/09/14 00:39:40;;;;;;;;;11.00;9.75;;;;;;;;4990283;28;45248;-73
2021/09/14 00:42:05;;;;;;;;;10.00;6.75;;;;;;;;4992862;28;45376;-73
2021/09/14 00:44:31;;;;;;;;;11.00;8.75;;;;;;;;4990608;28;45313;-73
2021/09/14 00:46:56;;;;;;;;;10.25;8.00;;;;;;;;4990155;28;45526;-73
2021/09/14 00:49:21;;;;;;;;;7.25;7.25;;;;;;;;4990331;28;45438;-73
2021/09/14 00:51:46;;;;;;;;;9.50;9.50;;;;;;;;4990670;28;45513;-73
2021/09/14 00:54:15;;;;;;;;;10.00;8.75;;;;;;;;4992241;28;45382;-72
2021/09/14 00:56:41;;;;;;;;;7.25;7.25;;;;;;;;4972805;28;45342;-73
2021/09/14 00:59:07;;;;;;;;;9.00;9.00;;;;;;;;4989889;28;46049;-73
2021/09/14 01:01:32;;;;;;;;;11.25;8.75;;;;;;;;4988591;28;45362;-73
2021/09/14 01:03:57;;;;;;;;;10.00;8.50;;;;;;;;4989142;28;45561;-73
2021/09/14 01:06:23;;;;;;;;;7.50;7.50;;;;;;;;4991695;28;45326;-73
2021/09/14 01:08:48;;;;;;;;;9.25;8.25;;;;;;;;4990706;28;45343;-72
2021/09/14 01:11:14;;;;;;;;;7.75;6.75;;;;;;;;4990033;28;45492;-73
2021/09/14 01:13:39;;;;;;;;;8.50;8.50;;;;;;;;4990204;28;45441;-73
2021/09/14 01:16:11;;;;;;;;;8.25;8.25;;;;;;;;4990381;28;45383;-73
2021/09/14 01:18:37;;;;;;;;;7.00;7.00;;;;;;;;4990318;28;45473;-72
2021/09/14 01:21:02;;;;;;;;;7.50;7.50;;;;;;;;4992223;28;45807;-71
2021/09/14 01:23:27;;;;;;;;;10.75;9.25;;;;;;;;4989891;28;45470;-71
2021/09/14 01:25:52;;;;;;;;;9.00;8.00;;;;;;;;4989969;28;46916;-71
2021/09/14 01:28:18;;;;;;;;;10.25;9.00;;;;;;;;4992196;28;45472;-71
2021/09/14 01:30:43;;;;;;;;;7.50;7.50;;;;;;;;4993182;28;45438;-71
2021/09/14 01:33:08;;;;;;;;;9.25;9.25;;;;;;;;4995187;28;45428;-71
2021/09/14 01:35:34;;;;;;;;;6.75;6.25;;;;;;;;4992972;28;45425;-71
2021/09/14 01:37:59;;;;;;;;;11.00;11.00;;;;;;;;4992328;28;45417;-72
2021/09/14 01:40:25;;;;;;;;;10.00;9.50;;;;;;;;4991200;28;45434;-72
2021/09/14 01:42:50;;;;;;;;;9.75;8.50;;;;;;;;4991572;28;45288;-72
2021/09/14 01:45:16;;;;;;;;;5.75;5.00;;;;;;;;4995229;28;45300;-73
2021/09/14 01:47:42;;;;;;;;;9.00;9.00;;;;;;;;4992390;28;45853;-72
2021/09/14 01:50:08;;;;;;;;;9.00;8.00;;;;;;;;4992834;28;45518;-72
2021/09/14 01:52:34;;;;;;;;;10.50;8.50;;;;;;;;4991914;27;45382;-72
2021/09/14 01:55:06;;;;;;;;;10.50;10.50;;;;;;;;4992853;28;45612;-72
2021/09/14 01:57:35;;;;;;;;;8.25;8.25;;;;;;;;4993000;28;46337;-72
2021/09/14 02:00:03;;;;;;;;;8.75;8.75;;;;;;;;4992781;28;45445;-72
2021/09/14 02:05:12;;;;;;;;;7.25;7.25;;;;;;;;4992392;28;45373;-72
2021/09/14 02:40:18;;;;;;;;;8.50;8.50;;;;;;;;4976648;28;45809;-72
2021/09/14 02:59:08;;;;;;;;;13.00;8.50;;;;;;;;4925828;28;45712;-72
2021/09/14 03:01:33;;;;;;;;;11.50;8.25;;;;;;;;4922893;28;46306;-72
2021/09/14 03:03:58;;;;;;;;;7.75;7.75;;;;;;;;4915164;28;45523;-72
2021/09/14 03:06:24;;;;;;;;;11.75;9.50;;;;;;;;4917691;28;45479;-72
2021/09/14 03:08:49;;;;;;;;;11.00;11.00;;;;;;;;4921378;28;45589;-72
2021/09/14 03:11:16;;;;;;;;;8.25;7.50;;;;;;;;4921733;28;45479;-72
2021/09/14 03:13:41;;;;;;;;;9.75;9.75;;;;;;;;4921717;28;47868;-72
2021/09/14 03:16:08;;;;;;;;;11.00;10.75;;;;;;;;4920163;28;45386;-72
2021/09/14 03:18:34;;;;;;;;;12.25;8.50;;;;;;;;4917147;28;45291;-71
2021/09/14 03:21:00;;;;;;;;;11.25;11.00;;;;;;;;4919383;28;47400;-71
2021/09/14 03:23:25;;;;;;;;;9.50;9.50;;;;;;;;4921250;28;45417;-72
2021/09/14 03:25:50;;;;;;;;;8.00;8.00;;;;;;;;4921090;28;45516;-72
2021/09/14 03:28:16;;;;;;;;;11.00;8.75;;;;;;;;4921089;28;45322;-72
2021/09/14 03:30:42;;;;;;;;;9.75;9.75;;;;;;;;4968122;28;46253;-72
2021/09/14 03:33:09;;;;;;;;;13.00;12.00;;;;;;;;4992900;28;45258;-72
2021/09/14 03:35:34;;;;;;;;;9.25;9.25;;;;;;;;4991264;28;45555;-72
2021/09/14 03:37:59;;;;;;;;;12.75;11.25;;;;;;;;4989451;28;46467;-72
2021/09/14 03:40:25;;;;;;;;;13.50;13.25;;;;;;;;4989563;28;46038;-72
2021/09/14 03:42:50;;;;;;;;;9.25;9.25;;;;;;;;4990731;28;45406;-72
2021/09/14 03:45:15;;;;;;;;;11.75;11.25;;;;;;;;4992831;28;45421;-73
2021/09/14 03:47:40;;;;;;;;;14.75;12.00;;;;;;;;4990115;28;45494;-72
2021/09/14 03:50:06;;;;;;;;;13.75;10.50;;;;;;;;4989939;28;45434;-72
2021/09/14 03:52:31;;;;;;;;;12.00;9.50;;;;;;;;4990357;28;45370;-72
2021/09/14 03:54:56;;;;;;;;;11.50;10.50;;;;;;;;4991086;28;45458;-73
2021/09/14 03:57:22;;;;;;;;;9.75;9.75;;;;;;;;4992248;28;45257;-71
2021/09/14 03:59:47;;;;;;;;;11.50;11.50;;;;;;;;4992414;28;45484;-73
2021/09/14 04:02:31;;;;;;;;;15.50;14.25;;;;;;;;4990245;28;45340;-72
2021/09/14 04:07:23;;;;;;;;;13.25;11.00;;;;;;;;4990762;28;45472;-73
2021/09/14 04:09:49;;;;;;;;;15.25;14.75;;;;;;;;4990339;28;46119;-73
2021/09/14 04:12:14;;;;;;;;;15.00;15.00;;;;;;;;4992732;28;45410;-72
2021/09/14 04:14:39;;;;;;;;;13.00;13.00;;;;;;;;4990518;28;45394;-72
2021/09/14 04:17:05;;;;;;;;;18.00;15.50;;;;;;;;4988644;28;45295;-73
2021/09/14 04:19:30;;;;;;;;;15.00;12.75;;;;;;;;4989321;28;46027;-72
2021/09/14 04:21:55;;;;;;;;;10.75;10.75;;;;;;;;4990553;28;45371;-72
2021/09/14 04:24:20;;;;;;;;;15.00;12.50;;;;;;;;4974440;28;45407;-72
2021/09/14 04:26:46;;;;;;;;;13.75;11.00;;;;;;;;4991131;28;45275;-74
2021/09/14 04:29:11;;;;;;;;;13.00;13.00;;;;;;;;4989665;28;45276;-72
2021/09/14 04:31:36;;;;;;;;;9.00;9.00;;;;;;;;4989721;28;45601;-72
2021/09/14 04:34:02;;;;;;;;;12.50;11.50;;;;;;;;4990431;27;45327;-73
2021/09/14 04:36:27;;;;;;;;;11.00;11.00;;;;;;;;4991340;28;45493;-72
2021/09/14 04:38:52;;;;;;;;;16.75;15.75;;;;;;;;4974105;28;47571;-72
2021/09/14 04:41:17;;;;;;;;;13.00;13.00;;;;;;;;4989989;28;45484;-73
2021/09/14 04:43:43;;;;;;;;;17.25;15.25;;;;;;;;4989831;28;45567;-73
2021/09/14 04:46:08;;;;;;;;;12.75;11.75;;;;;;;;4989329;28;45442;-72
2021/09/14 04:48:33;;;;;;;;;15.00;13.50;;;;;;;;4989796;28;45490;-72
2021/09/14 04:50:58;;;;;;;;;15.00;13.75;;;;;;;;4992051;28;45493;-72
2021/09/14 04:53:24;;;;;;;;;22.75;21.75;;;;;;;;4971760;28;45669;-72
2021/09/14 04:55:49;;;;;;;;;19.00;19.00;;;;;;;;4988193;28;45410;-71
2021/09/14 04:58:14;;;;;;;;;21.25;17.75;;;;;;;;4970442;28;47873;-72
2021/09/14 05:00:39;;;;;;;;;15.25;15.25;;;;;;;;4989210;28;45519;-72
2021/09/14 05:03:04;;;;;;;;;15.75;14.00;;;;;;;;4995986;28;45459;-72
2021/09/14 05:05:30;;;;;;;;;18.75;17.50;;;;;;;;4995368;28;45430;-72
2021/09/14 05:07:55;;;;;;;;;26.75;25.50;;;;;;;;4993561;28;46019;-72
2021/09/14 05:10:20;;;;;;;;;19.50;18.00;;;;;;;;4995806;28;45418;-72
2021/09/14 05:12:45;;;;;;;;;14.50;14.50;;;;;;;;5025187;27;45310;-72
2021/09/14 05:15:11;;;;;;;;;17.50;12.50;;;;;;;;5043785;27;45379;-78
2021/09/14 05:17:36;;;;;;;;;13.25;13.25;;;;;;;;5046832;27;47030;-77
2021/09/14 05:20:02;;;;;;;;;17.50;16.50;;;;;;;;5044864;27;45423;-78
2021/09/14 05:22:32;;;;;;;;;16.75;16.25;;;;;;;;5043147;27;45424;-77
2021/09/14 05:24:58;;;;;;;;;19.75;18.50;;;;;;;;5036538;27;45349;-77
2021/09/14 05:27:23;;;;;;;;;19.50;17.50;;;;;;;;4996485;28;46041;-72
2021/09/14 05:29:48;;;;;;;;;17.00;14.75;;;;;;;;4995082;28;45461;-72
2021/09/14 05:32:17;;;;;;;;;16.00;16.00;;;;;;;;4995188;28;45525;-72
2021/09/14 05:34:42;;;;;;;;;20.25;18.50;;;;;;;;4993135;28;45518;-72
2021/09/14 05:37:08;;;;;;;;;18.00;12.75;;;;;;;;4992970;28;46274;-71
2021/09/14 05:39:34;;;;;;;;;13.75;13.75;;;;;;;;4994506;28;45516;-71
2021/09/14 05:41:59;;;;;;;;;20.25;18.75;;;;;;;;4996455;28;45383;-72
2021/09/14 05:44:24;;;;;;;;;15.25;13.25;;;;;;;;4993899;28;45305;-73
2021/09/14 05:46:49;;;;;;;;;13.50;11.25;;;;;;;;5018850;27;46092;-73
2021/09/14 05:49:15;;;;;;;;;12.25;12.25;;;;;;;;5048923;27;45281;-72
2021/09/14 05:51:40;;;;;;;;;13.50;12.25;;;;;;;;5040770;27;45549;-72
2021/09/14 05:54:05;;;;;;;;;16.00;14.50;;;;;;;;5051399;27;45383;-72
2021/09/14 05:56:33;;;;;;;;;14.00;10.75;;;;;;;;5049505;27;46803;-73
2021/09/14 05:58:59;;;;;;;;;10.25;9.75;;;;;;;;5047708;27;45453;-73
2021/09/14 06:01:24;;;;;;;;;11.00;11.00;;;;;;;;5045772;27;45391;-73
2021/09/14 06:03:49;;;;;;;;;11.00;8.75;;;;;;;;5009154;27;45389;-75
2021/09/14 06:06:14;;;;;;;;;2.25;2.25;;;;;;;;4996690;28;47173;-71
2021/09/14 06:08:40;;;;;;;;;13.25;13.00;;;;;;;;4994613;28;45388;-71
2021/09/14 06:11:05;;;;;;;;;11.00;9.25;;;;;;;;4994773;28;45364;-77
2021/09/14 06:13:30;;;;;;;;;11.50;10.00;;;;;;;;5028549;27;46082;-73
2021/09/14 06:15:55;;;;;;;;;13.00;11.25;;;;;;;;4988554;28;46743;-74
2021/09/14 06:18:20;;;;;;;;;9.50;8.50;;;;;;;;4991223;28;45420;-73
2021/09/14 06:20:46;;;;;;;;;10.75;10.75;;;;;;;;4991394;28;45467;-73
2021/09/14 06:23:11;;;;;;;;;9.75;9.75;;;;;;;;4971242;28;45438;-72
2021/09/14 06:25:37;;;;;;;;;12.75;11.00;;;;;;;;5003428;27;45480;-73
2021/09/14 06:28:03;;;;;;;;;10.00;10.00;;;;;;;;5038828;27;45465;-74
2021/09/14 06:30:28;;;;;;;;;14.00;11.75;;;;;;;;5003257;27;45340;-72
2021/09/14 06:32:53;;;;;;;;;13.00;11.75;;;;;;;;4987428;27;45533;-73
2021/09/14 06:35:18;;;;;;;;;12.25;10.75;;;;;;;;4987011;28;45445;-72
2021/09/14 06:37:43;;;;;;;;;8.75;8.75;;;;;;;;4998272;27;45463;-73
2021/09/14 06:40:09;;;;;;;;;12.00;12.00;;;;;;;;4995526;27;45350;-73
2021/09/14 06:42:34;;;;;;;;;10.75;9.50;;;;;;;;4990926;27;45341;-74
2021/09/14 06:44:59;;;;;;;;;10.50;10.50;;;;;;;;4998930;27;46086;-73
2021/09/14 06:47:25;;;;;;;;;15.25;11.50;;;;;;;;4996607;27;45475;-73
2021/09/14 06:49:50;;;;;;;;;12.50;12.50;;;;;;;;5025681;27;45292;-72
2021/09/14 06:52:16;;;;;;;;;14.50;13.25;;;;;;;;5024558;27;45520;-73
2021/09/14 06:54:41;;;;;;;;;14.25;11.00;;;;;;;;4989592;27;46504;-73
2021/09/14 06:57:06;;;;;;;;;10.25;9.25;;;;;;;;5000463;27;45367;-73
2021/09/14 06:59:31;;;;;;;;;12.75;11.50;;;;;;;;5002598;27;45436;-73
2021/09/14 07:01:57;;;;;;;;;11.75;11.75;;;;;;;;4990107;27;45443;-73
2021/09/14 07:04:23;;;;;;;;;11.00;10.25;;;;;;;;5033143;27;46623;-73
2021/09/14 07:06:50;;;;;;;;;14.75;14.00;;;;;;;;4989466;27;45537;-73
2021/09/14 07:09:16;;;;;;;;;11.00;9.00;;;;;;;;4995483;27;45394;-73
2021/09/14 07:11:41;;;;;;;;;12.50;12.50;;;;;;;;4992571;27;45514;-73
2021/09/14 07:14:06;;;;;;;;;11.00;10.00;;;;;;;;4989194;27;45585;-73
2021/09/14 07:16:31;;;;;;;;;10.25;10.25;;;;;;;;4990487;28;45610;-72
2021/09/14 07:18:57;;;;;;;;;10.00;10.00;;;;;;;;5011565;27;45509;-73
2021/09/14 07:21:22;;;;;;;;;7.75;7.75;;;;;;;;5036870;27;45446;-72
2021/09/14 07:23:47;;;;;;;;;14.25;13.00;;;;;;;;5040103;27;47000;-72
2021/09/14 07:26:12;;;;;;;;;13.00;12.00;;;;;;;;5019126;27;45565;-73
2021/09/14 07:28:37;;;;;;;;;11.75;10.75;;;;;;;;5038025;27;45478;-73
2021/09/14 07:31:03;;;;;;;;;12.75;12.25;;;;;;;;5037124;27;45509;-73
2021/09/14 07:33:28;;;;;;;;;14.50;12.50;;;;;;;;5018444;27;47068;-72
2021/09/14 07:35:53;;;;;;;;;15.25;14.75;;;;;;;;5051362;27;45335;-73
2021/09/14 07:38:19;;;;;;;;;11.00;11.00;;;;;;;;5030584;27;45344;-72
2021/09/14 07:40:44;;;;;;;;;14.00;12.25;;;;;;;;5016430;27;45463;-72
2021/09/14 07:43:09;;;;;;;;;12.25;12.00;;;;;;;;5034893;27;45267;-73
2021/09/14 07:45:34;;;;;;;;;13.25;13.00;;;;;;;;5030483;27;45288;-73
2021/09/14 07:48:00;;;;;;;;;12.75;11.00;;;;;;;;5027926;27;45361;-72
2021/09/14 07:50:25;;;;;;;;;12.75;10.25;;;;;;;;5021885;27;45877;-73
2021/09/14 07:52:51;;;;;;;;;16.75;12.50;;;;;;;;5035550;27;45536;-73
2021/09/14 07:55:16;;;;;;;;;12.75;12.50;;;;;;;;5022975;27;45466;-72
2021/09/14 07:57:42;;;;;;;;;15.25;12.75;;;;;;;;4989530;28;45309;-71
2021/09/14 08:00:07;;;;;;;;;15.00;13.25;;;;;;;;4990835;27;45496;-71
2021/09/14 08:02:32;;;;;;;;;11.25;11.25;;;;;;;;4989110;27;46061;-73
2021/09/14 08:04:57;;;;;;;;;20.25;15.50;;;;;;;;4987580;27;45528;-73
2021/09/14 08:07:23;;;;;;;;;14.50;14.50;;;;;;;;4987939;28;45321;-73
2021/09/14 08:09:48;;;;;;;;;13.25;12.25;;;;;;;;4972484;28;45441;-73
2021/09/14 08:12:13;;;;;;;;;14.25;13.00;;;;;;;;4971475;28;46092;-72
2021/09/14 08:14:38;;;;;;;;;12.25;11.00;;;;;;;;4965139;28;45494;-72
2021/09/14 08:17:04;;;;;;;;;18.50;14.50;;;;;;;;4983356;28;45427;-72
2021/09/14 08:19:29;;;;;;;;;15.50;14.50;;;;;;;;4989373;28;45490;-72
2021/09/14 08:21:54;;;;;;;;;15.50;15.00;;;;;;;;4989082;27;46977;-73
2021/09/14 08:24:20;;;;;;;;;17.00;13.50;;;;;;;;4990895;28;45379;-73
2021/09/14 08:26:46;;;;;;;;;15.00;13.00;;;;;;;;4988884;28;45362;-72
2021/09/14 08:29:11;;;;;;;;;16.25;13.25;;;;;;;;4989065;28;45352;-72
2021/09/14 08:31:36;;;;;;;;;17.50;13.75;;;;;;;;4989395;28;47411;-73
2021/09/14 08:34:01;;;;;;;;;16.00;14.25;;;;;;;;4988771;28;45537;-73
2021/09/14 08:36:27;;;;;;;;;14.00;12.75;;;;;;;;4991729;27;45322;-72
2021/09/14 08:38:52;;;;;;;;;12.50;12.25;;;;;;;;5027093;27;45549;-72
2021/09/14 08:41:18;;;;;;;;;17.00;15.50;;;;;;;;4996998;27;47150;-72
2021/09/14 08:43:44;;;;;;;;;11.50;11.50;;;;;;;;4988808;28;45332;-71
2021/09/14 08:46:10;;;;;;;;;11.75;11.75;;;;;;;;4988811;28;45451;-71
2021/09/14 08:48:36;;;;;;;;;16.75;13.75;;;;;;;;4989675;28;45282;-72
2021/09/14 08:51:02;;;;;;;;;10.00;8.25;;;;;;;;4991056;28;46209;-72
2021/09/14 08:53:27;;;;;;;;;13.50;11.75;;;;;;;;4986990;28;45546;-73
2021/09/14 08:55:53;;;;;;;;;13.25;13.00;;;;;;;;4988975;28;45908;-73
2021/09/14 08:58:18;;;;;;;;;13.25;13.25;;;;;;;;4988508;28;45463;-72
2021/09/14 09:00:43;;;;;;;;;16.25;14.50;;;;;;;;4988292;28;46427;-71
2021/09/14 09:03:09;;;;;;;;;13.00;13.00;;;;;;;;4990997;28;45396;-73
2021/09/14 09:05:36;;;;;;;;;10.00;9.75;;;;;;;;4988903;28;45514;-72
2021/09/14 09:08:02;;;;;;;;;14.50;12.50;;;;;;;;4988708;28;45517;-72
2021/09/14 09:10:28;;;;;;;;;12.00;11.00;;;;;;;;4988727;28;46281;-72
2021/09/14 09:12:53;;;;;;;;;12.50;12.50;;;;;;;;4988919;28;45422;-72
2021/09/14 09:15:22;;;;;;;;;13.75;13.50;;;;;;;;4990968;28;45394;-72
2021/09/14 09:17:58;;;;;;;;;12.50;12.00;;;;;;;;4988965;28;45321;-72
2021/09/14 09:20:23;;;;;;;;;16.25;15.00;;;;;;;;4988275;28;46280;-72
2021/09/14 09:22:55;;;;;;;;;10.00;9.00;;;;;;;;4988314;28;45449;-72
2021/09/14 09:25:24;;;;;;;;;14.00;14.00;;;;;;;;4988753;28;45396;-72
2021/09/14 09:27:51;;;;;;;;;15.25;11.25;;;;;;;;4986968;28;45359;-72
2021/09/14 09:30:18;;;;;;;;;14.75;14.75;;;;;;;;4990728;28;45293;-73
2021/09/14 09:32:44;;;;;;;;;19.00;15.25;;;;;;;;4987188;28;45513;-73
2021/09/14 09:35:10;;;;;;;;;18.00;16.00;;;;;;;;4988016;28;45413;-73
2021/09/14 09:37:35;;;;;;;;;15.00;13.00;;;;;;;;4988576;28;45303;-73
2021/09/14 09:40:00;;;;;;;;;13.25;12.25;;;;;;;;4989289;28;46212;-71
2021/09/14 09:42:29;;;;;;;;;17.50;16.25;;;;;;;;4989665;28;45374;-73
2021/09/14 09:44:56;;;;;;;;;14.75;14.50;;;;;;;;4990124;28;45376;-72
2021/09/14 09:47:22;;;;;;;;;18.00;17.00;;;;;;;;4990424;27;45598;-73
2021/09/14 09:49:47;;;;;;;;;17.50;16.00;;;;;;;;4987576;28;45952;-73
2021/09/14 09:52:13;;;;;;;;;20.50;15.75;;;;;;;;4990809;28;45608;-72
2021/09/14 09:54:38;;;;;;;;;15.00;15.00;;;;;;;;4993331;27;45304;-75
2021/09/14 09:57:04;;;;;;;;;15.50;14.75;;;;;;;;4993085;28;45459;-72
2021/09/14 09:59:29;;;;;;;;;16.00;15.00;;;;;;;;4990582;28;46411;-72
2021/09/14 10:02:04;;;;;;;;;17.50;16.75;;;;;;;;4991365;27;45495;-72
2021/09/14 10:04:38;;;;;;;;;16.75;16.00;;;;;;;;4990909;27;45343;-73
2021/09/14 10:07:04;;;;;;;;;14.25;10.50;;;;;;;;4989340;28;45342;-73
2021/09/14 10:09:30;;;;;;;;;19.50;16.25;;;;;;;;4991221;28;45511;-73
2021/09/14 10:11:56;;;;;;;;;20.50;17.75;;;;;;;;4992431;28;45449;-72
2021/09/14 10:14:22;;;;;;;;;19.50;17.50;;;;;;;;4991011;28;45486;-73
2021/09/14 10:16:48;;;;;;;;;11.75;10.00;;;;;;;;4989772;28;45514;-74
2021/09/14 10:19:15;;;;;;;;;13.50;12.50;;;;;;;;4989443;28;46194;-76
2021/09/14 10:21:41;;;;;;;;;20.00;18.75;;;;;;;;4990189;28;45390;-74
2021/09/14 10:24:17;;;;;;;;;17.75;15.50;;;;;;;;4992043;28;45341;-74
2021/09/14 10:26:42;;;;;;;;;17.25;14.75;;;;;;;;4989935;28;45530;-74
2021/09/14 10:29:19;;;;;;;;;19.00;19.00;;;;;;;;4990337;28;46090;-74
2021/09/14 10:31:44;;;;;;;;;17.75;17.75;;;;;;;;4990347;28;45245;-74
2021/09/14 10:34:10;;;;;;;;;17.75;17.00;;;;;;;;4990243;28;45852;-73
2021/09/14 10:36:36;;;;;;;;;5.25;2.75;;;;;;;;4990673;28;45369;-74
2021/09/14 10:39:03;;;;;;;;;13.75;13.75;;;;;;;;4992582;28;46113;-73
2021/09/14 10:41:38;;;;;;;;;14.75;14.50;;;;;;;;4990026;28;49159;-74
2021/09/14 10:44:08;;;;;;;;;16.00;14.25;;;;;;;;4988265;28;45994;-75
2021/09/14 10:46:33;;;;;;;;;17.00;15.50;;;;;;;;4978872;28;46889;-74
2021/09/14 10:48:58;;;;;;;;;15.75;15.00;;;;;;;;4989289;28;45517;-75
2021/09/14 10:51:25;;;;;;;;;18.25;17.75;;;;;;;;4991204;28;45361;-75
2021/09/14 10:53:53;;;;;;;;;18.50;15.25;;;;;;;;4990641;28;45181;-75
2021/09/14 10:56:18;;;;;;;;;13.75;13.75;;;;;;;;4990400;28;49678;-76
2021/09/14 10:58:44;;;;;;;;;12.25;11.00;;;;;;;;4989613;28;46148;-74
2021/09/14 11:01:13;;;;;;;;;16.75;12.75;;;;;;;;4989238;28;45545;-75
2021/09/14 11:03:39;;;;;;;;;10.50;9.00;;;;;;;;4989251;28;45559;-74
2021/09/14 11:06:08;;;;;;;;;13.00;11.25;;;;;;;;4991775;28;45339;-73
2021/09/14 11:08:33;;;;;;;;;12.25;11.00;;;;;;;;4984926;28;47426;-75
2021/09/14 11:10:59;;;;;;;;;13.75;13.00;;;;;;;;4989296;28;45573;-74
2021/09/14 11:13:29;;;;;;;;;6.50;6.50;;;;;;;;4990257;28;45535;-73
2021/09/14 11:16:04;;;;;;;;;12.00;11.00;;;;;;;;4988824;28;45289;-73
2021/09/14 11:18:30;;;;;;;;;11.00;11.00;;;;;;;;4989111;28;46399;-73
2021/09/14 11:21:03;;;;;;;;;14.00;12.75;;;;;;;;4987960;28;45302;-73
2021/09/14 11:23:29;;;;;;;;;13.75;12.25;;;;;;;;4989292;28;45358;-74
2021/09/14 11:25:55;;;;;;;;;14.75;14.50;;;;;;;;4997375;28;45400;-73
2021/09/14 11:28:21;;;;;;;;;11.50;10.75;;;;;;;;4987710;28;47460;-75
2021/09/14 11:30:54;;;;;;;;;14.00;13.50;;;;;;;;4979509;28;45416;-74
2021/09/14 11:33:20;;;;;;;;;11.00;11.00;;;;;;;;4987920;28;45407;-74
2021/09/14 11:35:45;;;;;;;;;12.00;12.00;;;;;;;;4989906;28;45308;-73
2021/09/14 11:38:11;;;;;;;;;14.00;11.00;;;;;;;;4989607;28;46256;-74
2021/09/14 11:40:44;;;;;;;;;11.25;10.25;;;;;;;;4989252;28;45888;-74
2021/09/14 11:43:10;;;;;;;;;14.00;13.50;;;;;;;;4989617;28;45524;-73
2021/09/14 11:45:36;;;;;;;;;13.75;12.00;;;;;;;;4989082;28;45426;-74
2021/09/14 11:48:01;;;;;;;;;13.25;11.75;;;;;;;;4991376;28;45392;-74
2021/09/14 11:50:27;;;;;;;;;11.25;10.25;;;;;;;;4989059;28;45481;-74
2021/09/14 11:53:05;;;;;;;;;11.50;9.00;;;;;;;;4989679;28;45431;-75
2021/09/14 11:55:31;;;;;;;;;10.75;9.00;;;;;;;;4989132;28;45339;-74
2021/09/14 11:57:56;;;;;;;;;9.00;9.00;;;;;;;;4989414;28;47297;-73
2021/09/14 12:00:22;;;;;;;;;10.00;10.00;;;;;;;;4990259;28;45468;-74
2021/09/14 12:02:50;;;;;;;;;10.25;9.75;;;;;;;;4990035;28;45502;-75
2021/09/14 12:05:21;;;;;;;;;11.50;8.75;;;;;;;;4987838;28;45328;-74
2021/09/14 12:07:57;;;;;;;;;12.75;11.00;;;;;;;;4987679;28;46191;-77
2021/09/14 12:10:22;;;;;;;;;9.25;8.00;;;;;;;;4989119;28;45470;-74
2021/09/14 12:12:54;;;;;;;;;5.00;5.00;;;;;;;;4988304;27;45492;-73
2021/09/14 12:15:20;;;;;;;;;10.00;8.75;;;;;;;;5041251;27;45370;-73
2021/09/14 12:17:45;;;;;;;;;9.00;9.00;;;;;;;;4989717;28;46131;-73
2021/09/14 12:20:11;;;;;;;;;8.50;8.00;;;;;;;;4989189;28;45425;-73
2021/09/14 12:22:36;;;;;;;;;11.00;10.25;;;;;;;;4988989;27;45521;-74
2021/09/14 12:25:01;;;;;;;;;10.25;8.25;;;;;;;;4989040;27;45474;-75
2021/09/14 12:27:29;;;;;;;;;8.75;7.25;;;;;;;;5016701;28;46827;-76
2021/09/14 12:29:54;;;;;;;;;10.75;9.50;;;;;;;;5055475;27;45487;-74
2021/09/14 12:32:19;;;;;;;;;9.25;9.00;;;;;;;;5005220;27;45381;-73
2021/09/14 12:34:45;;;;;;;;;10.25;10.25;;;;;;;;4995447;27;45276;-74
2021/09/14 12:37:10;;;;;;;;;9.75;7.75;;;;;;;;4988697;28;47852;-73
2021/09/14 12:39:35;;;;;;;;;6.00;5.00;;;;;;;;4988960;28;45523;-74
2021/09/14 12:42:00;;;;;;;;;9.50;7.25;;;;;;;;5010499;27;45458;-74
2021/09/14 12:44:26;;;;;;;;;7.00;6.00;;;;;;;;5001735;27;45498;-75
2021/09/14 12:46:55;;;;;;;;;11.00;9.00;;;;;;;;4987761;28;46309;-74
2021/09/14 12:49:21;;;;;;;;;8.75;7.50;;;;;;;;4995187;27;45437;-74
2021/09/14 12:51:46;;;;;;;;;4.75;4.75;;;;;;;;4989878;27;45355;-74
2021/09/14 12:54:11;;;;;;;;;5.50;5.50;;;;;;;;4991320;28;45372;-73
2021/09/14 12:56:36;;;;;;;;;6.25;6.25;;;;;;;;4988129;27;45453;-75
2021/09/14 12:59:03;;;;;;;;;9.25;8.25;;;;;;;;4988864;28;45432;-74
2021/09/14 13:01:28;;;;;;;;;8.00;8.00;;;;;;;;4989678;28;45340;-74
2021/09/14 13:03:53;;;;;;;;;7.75;7.50;;;;;;;;4987886;28;45438;-73
2021/09/14 13:06:18;;;;;;;;;4.75;4.75;;;;;;;;4990599;27;46194;-73
2021/09/14 13:08:44;;;;;;;;;12.25;6.50;;;;;;;;4988189;28;45528;-72
2021/09/14 13:11:09;;;;;;;;;6.00;6.00;;;;;;;;4988133;28;45370;-74
2021/09/14 13:16:18;;;;;;;;;4.50;4.25;;;;;;;;4988356;28;45831;-74
2021/09/14 13:18:45;;;;;;;;;5.75;5.25;;;;;;;;4987178;27;45485;-74
2021/09/14 13:21:11;;;;;;;;;7.00;6.00;;;;;;;;4990501;28;45494;-75
2021/09/14 13:23:36;;;;;;;;;6.00;6.00;;;;;;;;4987188;27;45477;-73
2021/09/14 13:26:02;;;;;;;;;6.50;5.50;;;;;;;;4989204;27;45264;-74
2021/09/14 13:28:27;;;;;;;;;5.33;5.33;;;;;;;;4990566;27;45347;-74
2021/09/14 13:30:53;;;;;;;;;5.25;5.25;;;;;;;;4991214;27;45453;-74
2021/09/14 13:33:18;;;;;;;;;6.00;6.00;;;;;;;;4992816;27;45217;-74
2021/09/14 13:35:43;;;;;;;;;5.50;5.50;;;;;;;;4990864;27;45371;-74
2021/09/14 13:38:08;;;;;;;;;8.75;7.00;;;;;;;;4991243;27;45509;-73
2021/09/14 13:40:34;;;;;;;;;5.25;5.25;;;;;;;;4989648;27;49072;-73
2021/09/14 13:43:00;;;;;;;;;6.25;6.25;;;;;;;;4991037;27;45394;-73
2021/09/14 13:48:10;;;;;;;;;4.00;4.00;;;;;;;;5063656;27;45482;-72
2021/09/14 13:50:36;;;;;;;;;6.00;6.00;;;;;;;;4996864;27;45439;-75
2021/09/14 13:53:01;;;;;;;;;5.00;5.00;;;;;;;;4990561;27;46870;-75
2021/09/14 13:55:27;;;;;;;;;7.00;7.00;;;;;;;;4988983;27;46992;-74
2021/09/14 13:57:52;;;;;;;;;6.00;6.00;;;;;;;;4990518;28;45474;-74
2021/09/14 14:00:18;;;;;;;;;6.00;6.00;;;;;;;;4992243;27;45527;-74
2021/09/14 14:02:43;;;;;;;;;4.33;4.33;;;;;;;;4990295;27;45415;-74
2021/09/14 14:05:09;;;;;;;;;6.00;6.00;;;;;;;;4986671;28;46332;-74
2021/09/14 14:07:34;;;;;;;;;8.25;7.00;;;;;;;;4988082;27;45686;-73
2021/09/14 14:09:59;;;;;;;;;5.00;4.00;;;;;;;;4994507;27;45477;-75
2021/09/14 14:12:25;;;;;;;;;6.75;5.25;;;;;;;;4991883;28;45457;-74
2021/09/14 14:14:50;;;;;;;;;3.25;3.00;;;;;;;;4990724;27;45388;-74
2021/09/14 14:17:16;;;;;;;;;5.25;5.00;;;;;;;;4989153;27;45452;-73
2021/09/14 14:19:41;;;;;;;;;5.00;5.00;;;;;;;;4990708;28;45519;-75
2021/09/14 14:22:07;;;;;;;;;5.00;4.67;;;;;;;;5013859;27;45579;-76
2021/09/14 14:24:32;;;;;;;;;5.33;5.33;;;;;;;;4990933;27;47116;-74
2021/09/14 14:26:57;;;;;;;;;3.00;3.00;;;;;;;;4995172;27;45480;-75
2021/09/14 14:29:22;;;;;;;;;6.67;6.67;;;;;;;;4994690;27;45516;-75
2021/09/14 14:31:47;;;;;;;;;9.67;9.67;;;;;;;;5030928;27;45336;-73
2021/09/14 14:34:13;;;;;;;;;3.00;1.33;;;;;;;;4989522;28;45380;-73
2021/09/14 14:36:38;;;;;;;;;9.33;8.33;;;;;;;;4989661;27;45331;-74
2021/09/14 14:39:03;;;;;;;;;9.00;8.00;;;;;;;;4992381;27;45410;-72
2021/09/14 14:41:28;;;;;;;;;10.67;8.33;;;;;;;;4988682;27;45466;-73
2021/09/14 14:43:54;;;;;;;;;8.00;8.00;;;;;;;;4988651;27;46197;-74
2021/09/14 14:46:19;;;;;;;;;4.00;4.00;;;;;;;;4990434;28;45417;-73
2021/09/14 14:48:44;;;;;;;;;6.67;6.67;;;;;;;;4989737;28;45688;-73
2021/09/14 14:51:09;;;;;;;;;7.00;7.00;;;;;;;;4996869;27;45625;-74
2021/09/14 14:53:34;;;;;;;;;5.75;5.75;;;;;;;;4994783;27;46147;-73
2021/09/14 14:56:00;;;;;;;;;8.50;7.00;;;;;;;;4989234;27;45436;-73
2021/09/14 14:58:25;;;;;;;;;5.75;5.75;;;;;;;;4990047;28;46768;-73
2021/09/14 15:00:50;;;;;;;;;5.00;5.00;;;;;;;;4990293;27;45307;-74
2021/09/14 15:03:16;;;;;;;;;6.50;5.75;;;;;;;;4992144;27;46218;-74
2021/09/14 15:05:41;;;;;;;;;7.75;6.50;;;;;;;;4988751;27;45505;-75
2021/09/14 15:08:06;;;;;;;;;9.25;8.00;;;;;;;;4988303;27;45929;-74
2021/09/14 15:10:31;;;;;;;;;5.50;4.50;;;;;;;;4988870;27;45821;-74
2021/09/14 15:12:57;;;;;;;;;5.00;5.00;;;;;;;;4989491;28;46235;-74
2021/09/14 15:15:22;;;;;;;;;8.00;7.00;;;;;;;;4990572;28;45390;-74
2021/09/14 15:17:48;;;;;;;;;9.00;8.00;;;;;;;;4987773;28;45390;-73
2021/09/14 15:20:13;;;;;;;;;9.00;9.00;;;;;;;;4987683;27;45307;-74